createdAt,value
2023-05-10T00:02:21.728Z,29.28
2023-05-10T00:04:48.105Z,29.41
2023-05-10T00:07:14.453Z,29.23
2023-05-10T00:09:40.891Z,29.50
2023-05-10T00:12:07.388Z,29.29
2023-05-10T00:14:33.833Z,29.14
2023-05-10T00:17:00.252Z,29.24
2023-05-10T00:19:26.690Z,29.24
2023-05-10T00:21:53.033Z,29.49
2023-05-10T00:24:19.428Z,29.34
2023-05-10T00:26:45.761Z,29.14
2023-05-10T00:29:12.124Z,29.36
2023-05-10T00:31:38.530Z,29.20
2023-05-10T00:34:04.885Z,29.32
2023-05-10T00:36:31.206Z,29.34
2023-05-10T00:38:57.684Z,29.54
2023-05-10T00:41:24.015Z,29.63
2023-05-10T00:43:50.521Z,29.64
2023-05-10T00:46:17.087Z,29.77
2023-05-10T00:48:43.436Z,29.94
2023-05-10T00:51:09.808Z,30.22
2023-05-10T00:53:36.190Z,30.04
2023-05-10T00:56:02.514Z,29.89
2023-05-10T00:58:29.001Z,30.07
2023-05-10T01:00:55.499Z,30.31
2023-05-10T01:03:21.889Z,29.97
2023-05-10T01:05:48.270Z,29.98
2023-05-10T01:08:14.635Z,30.04
2023-05-10T01:10:40.948Z,29.73
2023-05-10T01:13:07.950Z,29.83
2023-05-10T01:15:34.407Z,29.93
2023-05-10T01:18:00.799Z,29.89
2023-05-10T01:20:27.174Z,29.86
2023-05-10T01:22:53.548Z,30.02
2023-05-10T01:25:19.925Z,30.07
2023-05-10T01:27:46.323Z,30.03
2023-05-10T01:30:16.029Z,30.25
2023-05-10T01:32:42.683Z,30.23
2023-05-10T01:35:09.054Z,29.86
2023-05-10T01:37:35.419Z,29.85
2023-05-10T01:40:01.748Z,30.14
2023-05-10T01:42:28.422Z,30.04
2023-05-10T01:44:54.771Z,30.34
2023-05-10T01:47:21.106Z,30.21
2023-05-10T01:49:47.445Z,30.26
2023-05-10T01:52:13.812Z,30.10
2023-05-10T01:54:40.145Z,30.08
2023-05-10T01:57:07.865Z,30.25
2023-05-10T01:59:34.260Z,30.34
2023-05-10T02:02:00.592Z,30.44
2023-05-10T02:04:26.932Z,31.01
2023-05-10T02:06:53.319Z,31.17
2023-05-10T02:09:19.650Z,31.29
2023-05-10T02:11:45.977Z,31.13
2023-05-10T02:14:12.312Z,31.11
2023-05-10T02:16:38.731Z,30.89
2023-05-10T02:19:05.109Z,30.88
2023-05-10T02:21:31.536Z,30.64
2023-05-10T02:23:57.964Z,30.85
2023-05-10T02:26:24.344Z,30.43
2023-05-10T02:28:50.721Z,30.57
2023-05-10T02:31:17.061Z,30.43
2023-05-10T02:33:43.377Z,30.32
2023-05-10T02:36:09.743Z,30.24
2023-05-10T02:38:36.657Z,30.06
2023-05-10T02:41:02.984Z,30.18
2023-05-10T02:43:29.346Z,29.95
2023-05-10T02:45:56.416Z,29.74
2023-05-10T02:48:22.768Z,29.76
2023-05-10T02:50:49.117Z,29.69
2023-05-10T02:53:15.440Z,29.59
2023-05-10T02:55:41.762Z,29.66
2023-05-10T02:58:08.172Z,29.29
2023-05-10T03:00:34.506Z,29.52
2023-05-10T03:03:00.839Z,29.31
2023-05-10T03:05:28.232Z,29.20
2023-05-10T03:07:55.496Z,28.89
2023-05-10T03:10:21.919Z,28.90
2023-05-10T03:12:48.416Z,29.01
2023-05-10T03:15:14.785Z,28.86
2023-05-10T03:17:41.192Z,28.48
2023-05-10T03:20:08.062Z,28.17
2023-05-10T03:22:34.482Z,28.38
2023-05-10T03:25:00.942Z,28.03
2023-05-10T03:27:29.700Z,27.86
2023-05-10T03:29:56.340Z,28.01
2023-05-10T03:32:23.002Z,27.90
2023-05-10T03:34:49.560Z,27.92
2023-05-10T03:37:15.979Z,27.73
2023-05-10T03:39:42.416Z,27.75
2023-05-10T03:42:10.357Z,27.88
2023-05-10T03:44:36.869Z,27.94
2023-05-10T03:47:03.410Z,28.18
2023-05-10T03:49:30.133Z,28.26
2023-05-10T03:51:56.767Z,28.35
2023-05-10T03:54:23.274Z,28.28
2023-05-10T03:56:49.760Z,28.52
2023-05-10T03:59:17.817Z,27.79
2023-05-10T04:01:44.364Z,26.79
2023-05-10T04:04:11.061Z,27.09
2023-05-10T04:06:37.592Z,27.58
2023-05-10T04:09:04.236Z,27.51
2023-05-10T04:11:30.806Z,27.42
2023-05-10T04:13:57.294Z,27.52
2023-05-10T04:16:23.942Z,27.05
2023-05-10T04:18:50.495Z,26.75
2023-05-10T04:21:16.931Z,26.44
2023-05-10T04:23:43.623Z,26.13
2023-05-10T04:26:10.110Z,26.22
2023-05-10T04:28:36.532Z,26.12
2023-05-10T04:31:03.087Z,26.22
2023-05-10T04:33:29.751Z,26.04
2023-05-10T04:35:56.206Z,25.79
2023-05-10T04:38:22.707Z,25.76
2023-05-10T04:40:49.267Z,25.63
2023-05-10T04:43:15.814Z,25.21
2023-05-10T04:45:42.287Z,25.19
2023-05-10T04:48:08.758Z,25.12
2023-05-10T04:50:35.565Z,24.95
2023-05-10T04:53:01.966Z,24.79
2023-05-10T04:55:28.455Z,24.48
2023-05-10T04:57:54.869Z,24.38
2023-05-10T05:00:21.250Z,23.97
2023-05-10T05:02:47.872Z,24.19
2023-05-10T05:05:14.525Z,23.97
2023-05-10T05:07:40.968Z,23.76
2023-05-10T05:10:07.488Z,23.54
2023-05-10T05:12:33.995Z,23.79
2023-05-10T05:15:00.410Z,23.50
2023-05-10T05:17:27.051Z,23.40
2023-05-10T05:19:53.502Z,23.29
2023-05-10T05:22:19.938Z,23.21
2023-05-10T05:24:46.408Z,22.91
2023-05-10T05:27:12.842Z,22.54
2023-05-10T05:29:39.324Z,22.03
2023-05-10T05:32:06.009Z,21.80
2023-05-10T05:34:32.498Z,22.05
2023-05-10T05:36:58.921Z,22.26
2023-05-10T05:39:25.461Z,22.33
2023-05-10T05:41:51.996Z,22.54
2023-05-10T05:44:18.473Z,22.30
2023-05-10T05:46:45.017Z,22.85
2023-05-10T05:49:11.568Z,22.55
2023-05-10T05:51:38.050Z,22.59
2023-05-10T05:54:04.541Z,22.54
2023-05-10T05:56:30.980Z,22.56
2023-05-10T05:58:57.378Z,22.55
2023-05-10T06:01:23.958Z,22.66
2023-05-10T06:03:51.921Z,22.85
2023-05-10T06:06:19.786Z,22.71
2023-05-10T06:08:46.273Z,22.09
2023-05-10T06:11:12.771Z,22.05
2023-05-10T06:13:39.139Z,22.59
2023-05-10T06:16:05.556Z,21.68
2023-05-10T06:18:31.908Z,21.88
2023-05-10T06:20:58.277Z,22.30
2023-05-10T06:23:24.692Z,22.10
2023-05-10T06:25:51.101Z,22.13
2023-05-10T06:28:17.509Z,22.37
2023-05-10T06:30:43.896Z,22.40
2023-05-10T06:33:10.281Z,22.26
2023-05-10T06:35:36.691Z,22.25
2023-05-10T06:38:03.142Z,22.48
2023-05-10T06:40:29.489Z,22.69
2023-05-10T06:42:55.831Z,22.47
2023-05-10T06:45:22.239Z,22.94
2023-05-10T06:47:48.675Z,22.73
2023-05-10T06:50:15.089Z,23.00
2023-05-10T06:52:41.522Z,22.73
2023-05-10T06:55:07.949Z,22.99
2023-05-10T06:57:34.356Z,23.03
2023-05-10T07:00:00.816Z,23.12
2023-05-10T07:02:27.306Z,23.09
2023-05-10T07:04:53.822Z,23.28
2023-05-10T07:07:20.357Z,23.49
2023-05-10T07:09:46.728Z,23.33
2023-05-10T07:12:15.034Z,23.25
2023-05-10T07:14:42.060Z,23.43
2023-05-10T07:17:08.479Z,23.19
2023-05-10T07:19:34.898Z,23.51
2023-05-10T07:22:01.333Z,23.58
2023-05-10T07:24:27.703Z,23.57
2023-05-10T07:26:54.063Z,23.48
2023-05-10T07:29:20.494Z,22.93
2023-05-10T07:31:46.934Z,22.34
2023-05-10T07:34:13.358Z,22.51
2023-05-10T07:36:39.904Z,22.65
2023-05-10T07:39:06.297Z,22.82
2023-05-10T07:41:33.916Z,22.59
2023-05-10T07:44:01.636Z,22.72
2023-05-10T07:46:28.119Z,23.07
2023-05-10T07:48:54.575Z,23.13
2023-05-10T07:51:21.023Z,23.17
2023-05-10T07:53:47.411Z,22.91
2023-05-10T07:56:13.789Z,23.20
2023-05-10T07:58:40.204Z,23.10
2023-05-10T08:01:06.568Z,23.38
2023-05-10T08:03:33.009Z,23.04
2023-05-10T08:05:59.546Z,23.36
2023-05-10T08:08:25.907Z,23.19
2023-05-10T08:10:52.242Z,23.39
2023-05-10T08:13:18.679Z,23.20
2023-05-10T08:15:45.101Z,23.04
2023-05-10T08:18:11.536Z,23.39
2023-05-10T08:20:38.043Z,23.39
2023-05-10T08:23:04.397Z,23.46
2023-05-10T08:25:30.829Z,23.65
2023-05-10T08:27:57.278Z,23.50
2023-05-10T08:30:23.674Z,23.23
2023-05-10T08:32:50.080Z,23.35
2023-05-10T08:35:16.796Z,23.24
2023-05-10T08:37:43.219Z,23.39
2023-05-10T08:40:09.582Z,23.64
2023-05-10T08:42:36.050Z,23.33
2023-05-10T08:45:02.435Z,23.36
2023-05-10T08:47:28.869Z,23.40
2023-05-10T08:49:55.319Z,23.47
2023-05-10T08:52:21.706Z,23.74
2023-05-10T08:54:48.173Z,23.98
2023-05-10T08:57:14.625Z,23.87
2023-05-10T08:59:41.023Z,24.17
2023-05-10T09:02:07.385Z,23.71
2023-05-10T09:04:33.863Z,24.06
2023-05-10T09:07:00.297Z,24.05
2023-05-10T09:09:26.683Z,24.19
2023-05-10T09:11:53.107Z,24.16
2023-05-10T09:14:19.518Z,23.96
2023-05-10T09:16:46.026Z,23.98
2023-05-10T09:19:12.656Z,24.04
2023-05-10T09:21:39.213Z,23.91
2023-05-10T09:24:05.649Z,24.08
2023-05-10T09:26:32.065Z,23.96
2023-05-10T09:28:58.511Z,23.71
2023-05-10T09:31:25.028Z,23.89
2023-05-10T09:33:51.497Z,24.27
2023-05-10T09:36:17.882Z,24.23
2023-05-10T09:38:44.245Z,24.31
2023-05-10T09:41:10.666Z,23.97
2023-05-10T09:43:37.041Z,24.06
2023-05-10T09:46:03.472Z,24.32
2023-05-10T09:48:29.929Z,24.02
2023-05-10T09:50:56.324Z,23.77
2023-05-10T09:53:22.696Z,23.95
2023-05-10T09:55:49.125Z,23.86
2023-05-10T09:58:15.692Z,23.44
2023-05-10T10:00:42.096Z,23.80
2023-05-10T10:03:08.611Z,23.64
2023-05-10T10:05:35.187Z,23.59
2023-05-10T10:08:01.539Z,23.63
2023-05-10T10:10:28.025Z,23.94
2023-05-10T10:12:54.404Z,23.18
2023-05-10T10:15:20.943Z,23.36
2023-05-10T10:17:47.577Z,23.26
2023-05-10T10:20:14.246Z,23.10
2023-05-10T10:22:40.921Z,23.41
2023-05-10T10:25:07.410Z,23.46
2023-05-10T10:27:33.832Z,23.29
2023-05-10T10:30:00.369Z,23.61
2023-05-10T10:32:26.908Z,23.21
2023-05-10T10:34:53.367Z,23.23
2023-05-10T10:37:19.844Z,23.19
2023-05-10T10:39:46.260Z,23.37
2023-05-10T10:42:12.614Z,23.39
2023-05-10T10:44:39.304Z,23.56
2023-05-10T10:47:05.937Z,23.44
2023-05-10T10:49:32.469Z,23.70
2023-05-10T10:51:58.996Z,23.76
2023-05-10T10:54:25.500Z,23.42
2023-05-10T10:56:51.888Z,23.34
2023-05-10T10:59:18.297Z,23.51
2023-05-10T11:01:44.733Z,23.46
2023-05-10T11:04:11.137Z,23.74
2023-05-10T11:06:37.730Z,23.53
2023-05-10T11:09:04.187Z,23.78
2023-05-10T11:11:30.587Z,23.88
2023-05-10T11:13:57.030Z,23.82
2023-05-10T11:16:23.518Z,23.64
2023-05-10T11:18:50.339Z,23.89
2023-05-10T11:21:16.778Z,24.02
2023-05-10T11:23:43.221Z,23.65
2023-05-10T11:26:09.923Z,23.93
2023-05-10T11:28:36.312Z,23.94
2023-05-10T11:31:02.733Z,23.89
2023-05-10T11:33:29.121Z,24.04
2023-05-10T11:35:55.498Z,23.58
2023-05-10T11:38:21.936Z,23.63
2023-05-10T11:40:48.326Z,23.89
2023-05-10T11:43:14.715Z,23.93
2023-05-10T11:45:41.225Z,23.99
2023-05-10T11:48:07.679Z,24.15
2023-05-10T11:50:34.132Z,23.63
2023-05-10T11:53:00.580Z,24.31
2023-05-10T11:55:26.909Z,23.93
2023-05-10T11:57:53.343Z,23.79
2023-05-10T12:00:20.041Z,24.09
2023-05-10T12:02:46.734Z,23.70
2023-05-10T12:05:13.167Z,23.66
2023-05-10T12:07:39.577Z,22.51
2023-05-10T12:10:05.982Z,22.16
2023-05-10T12:12:32.388Z,20.94
2023-05-10T12:14:58.884Z,21.68
2023-05-10T12:17:25.287Z,21.83
2023-05-10T12:19:51.621Z,21.47
2023-05-10T12:22:18.036Z,21.31
2023-05-10T12:24:44.406Z,21.06
2023-05-10T12:29:55.087Z,20.87
2023-05-10T12:32:21.459Z,20.84
2023-05-10T12:34:47.805Z,20.19
2023-05-10T12:37:14.244Z,20.50
2023-05-10T12:39:40.599Z,20.79
2023-05-10T12:42:06.972Z,20.71
2023-05-10T12:44:33.409Z,20.78
2023-05-10T12:46:59.729Z,20.83
2023-05-10T12:49:26.074Z,20.63
2023-05-10T12:51:52.480Z,20.55
2023-05-10T12:54:18.836Z,20.12
2023-05-10T12:56:45.152Z,19.98
2023-05-10T12:59:11.563Z,20.49
2023-05-10T13:01:38.066Z,20.53
2023-05-10T13:04:04.480Z,20.41
2023-05-10T13:06:30.873Z,20.77
2023-05-10T13:08:57.247Z,20.86
2023-05-10T13:11:23.634Z,20.53
2023-05-10T13:13:50.159Z,19.23
2023-05-10T13:16:16.613Z,18.57
2023-05-10T13:18:43.078Z,18.68
2023-05-10T13:21:09.511Z,18.55
2023-05-10T13:23:35.822Z,18.39
2023-05-10T13:26:02.139Z,19.01
2023-05-10T13:28:28.603Z,18.95
2023-05-10T13:30:55.101Z,18.74
2023-05-10T13:33:21.485Z,18.89
2023-05-10T13:35:47.848Z,19.04
2023-05-10T13:38:14.177Z,19.09
2023-05-10T13:40:40.508Z,19.27
2023-05-10T13:43:07.002Z,19.42
2023-05-10T13:45:33.416Z,19.59
2023-05-10T13:47:59.826Z,19.81
2023-05-10T13:50:26.226Z,19.55
2023-05-10T13:52:52.568Z,19.81
2023-05-10T13:55:19.429Z,20.00
2023-05-10T13:57:46.090Z,19.69
2023-05-10T14:00:12.410Z,20.17
2023-05-10T14:02:38.859Z,20.04
2023-05-10T14:05:05.392Z,19.90
2023-05-10T14:07:31.767Z,20.24
2023-05-10T14:09:58.257Z,20.42
2023-05-10T14:12:24.743Z,20.39
2023-05-10T14:14:51.047Z,20.26
2023-05-10T14:17:17.477Z,19.97
2023-05-10T14:19:44.056Z,20.02
2023-05-10T14:22:10.403Z,20.24
2023-05-10T14:24:36.711Z,20.05
2023-05-10T14:27:03.068Z,20.14
2023-05-10T14:29:29.413Z,20.04
2023-05-10T14:31:55.762Z,20.26
2023-05-10T14:34:22.153Z,20.05
2023-05-10T14:36:48.539Z,20.12
2023-05-10T14:39:14.930Z,20.24
2023-05-10T14:41:41.421Z,20.22
2023-05-10T14:44:07.774Z,20.62
2023-05-10T14:46:34.274Z,20.63
2023-05-10T14:49:00.856Z,20.82
2023-05-10T14:51:27.238Z,20.91
2023-05-10T14:53:53.549Z,20.56
2023-05-10T14:56:19.907Z,20.61
2023-05-10T14:58:46.281Z,20.94
2023-05-10T15:01:12.618Z,20.85
2023-05-10T15:03:39.683Z,20.72
2023-05-10T15:06:06.592Z,20.95
2023-05-10T15:08:33.014Z,20.91
2023-05-10T15:10:59.460Z,21.05
2023-05-10T15:13:25.802Z,20.80
2023-05-10T15:15:52.172Z,20.93
2023-05-10T15:18:18.885Z,21.25
2023-05-10T15:20:45.331Z,20.90
2023-05-10T15:23:11.670Z,21.07
2023-05-10T15:25:38.013Z,21.06
2023-05-10T15:28:04.343Z,21.06
2023-05-10T15:30:30.666Z,21.17
2023-05-10T15:32:57.150Z,21.45
2023-05-10T15:35:23.635Z,21.75
2023-05-10T15:37:49.972Z,21.34
2023-05-10T15:40:16.354Z,21.59
2023-05-10T15:42:42.673Z,21.71
2023-05-10T15:45:08.981Z,21.35
2023-05-10T15:47:35.434Z,21.85
2023-05-10T15:50:02.205Z,21.60
2023-05-10T15:52:28.689Z,21.71
2023-05-10T15:54:55.058Z,21.76
2023-05-10T15:57:21.384Z,21.55
2023-05-10T15:59:47.839Z,21.62
2023-05-10T16:02:14.352Z,21.73
2023-05-10T16:04:40.851Z,21.95
2023-05-10T16:07:07.336Z,21.81
2023-05-10T16:09:33.775Z,21.74
2023-05-10T16:12:00.196Z,21.88
2023-05-10T16:14:26.520Z,21.87
2023-05-10T16:16:52.991Z,22.19
2023-05-10T16:19:19.539Z,22.11
2023-05-10T16:21:45.954Z,22.14
2023-05-10T16:24:12.329Z,22.51
2023-05-10T16:26:38.681Z,22.55
2023-05-10T16:29:05.193Z,22.54
2023-05-10T16:31:31.736Z,22.18
2023-05-10T16:33:58.169Z,22.26
2023-05-10T16:36:24.578Z,22.12
2023-05-10T16:38:50.997Z,22.49
2023-05-10T16:41:17.316Z,22.53
2023-05-10T16:43:43.642Z,22.23
2023-05-10T16:46:10.011Z,22.42
2023-05-10T16:48:36.450Z,22.42
2023-05-10T16:51:02.906Z,22.34
2023-05-10T16:53:29.517Z,22.59
2023-05-10T16:55:55.875Z,22.42
2023-05-10T16:58:22.349Z,22.19
2023-05-10T17:00:48.847Z,22.52
2023-05-10T17:03:15.347Z,22.48
2023-05-10T17:05:41.810Z,22.38
2023-05-10T17:08:08.221Z,22.24
2023-05-10T17:10:34.535Z,22.59
2023-05-10T17:13:00.837Z,22.50
2023-05-10T17:15:27.256Z,22.27
2023-05-10T17:17:53.695Z,22.71
2023-05-10T17:20:20.089Z,22.56
2023-05-10T17:22:46.481Z,22.49
2023-05-10T17:25:12.847Z,22.38
2023-05-10T17:27:39.177Z,22.53
2023-05-10T17:30:05.602Z,22.26
2023-05-10T17:32:32.135Z,22.84
2023-05-10T17:34:58.455Z,22.54
2023-05-10T17:37:24.800Z,22.59
2023-05-10T17:39:51.194Z,22.93
2023-05-10T17:42:17.520Z,22.61
2023-05-10T17:44:43.938Z,22.96
2023-05-10T17:47:10.349Z,23.11
2023-05-10T17:49:36.720Z,22.97
2023-05-10T17:52:03.130Z,22.98
2023-05-10T17:54:29.542Z,22.95
2023-05-10T17:56:56.033Z,22.73
2023-05-10T17:59:22.579Z,22.91
2023-05-10T18:01:48.932Z,22.68
2023-05-10T18:04:15.342Z,23.24
2023-05-10T18:06:41.743Z,22.90
2023-05-10T18:09:08.176Z,23.26
2023-05-10T18:11:34.664Z,23.34
2023-05-10T18:14:01.072Z,23.32
2023-05-10T18:16:27.486Z,23.33
2023-05-10T18:18:53.885Z,23.19
2023-05-10T18:21:20.323Z,23.65
2023-05-10T18:23:46.688Z,23.15
2023-05-10T18:26:12.991Z,23.61
2023-05-10T18:28:39.433Z,23.24
2023-05-10T18:31:05.822Z,23.51
2023-05-10T18:33:32.269Z,23.82
2023-05-10T18:35:58.714Z,23.42
2023-05-10T18:38:25.045Z,23.90
2023-05-10T18:40:51.487Z,23.86
2023-05-10T18:43:18.035Z,23.65
2023-05-10T18:45:44.518Z,23.64
2023-05-10T18:48:10.928Z,23.93
2023-05-10T18:50:37.395Z,24.09
2023-05-10T18:53:03.774Z,23.83
2023-05-10T18:55:30.103Z,24.17
2023-05-10T18:57:56.479Z,23.88
2023-05-10T19:00:22.820Z,24.11
2023-05-10T19:02:49.189Z,23.96
2023-05-10T19:05:16.004Z,24.00
2023-05-10T19:07:42.663Z,23.97
2023-05-10T19:10:09.011Z,24.04
2023-05-10T19:12:35.416Z,24.37
2023-05-10T19:15:01.976Z,24.29
2023-05-10T19:17:30.259Z,24.31
2023-05-10T19:19:57.306Z,24.45
2023-05-10T19:22:35.350Z,24.65
2023-05-10T19:25:10.853Z,24.55
2023-05-10T19:27:37.172Z,24.62
2023-05-10T19:30:03.736Z,24.51
2023-05-10T19:32:30.170Z,24.56
2023-05-10T19:34:56.503Z,24.84
2023-05-10T19:37:23.242Z,24.75
2023-05-10T19:39:49.674Z,24.85
2023-05-10T19:42:16.085Z,25.28
2023-05-10T19:44:42.644Z,24.87
2023-05-10T19:47:09.183Z,25.08
2023-05-10T19:49:35.684Z,24.95
2023-05-10T19:52:02.026Z,25.08
2023-05-10T19:54:28.485Z,25.05
2023-05-10T19:56:54.807Z,25.10
2023-05-10T19:59:21.160Z,25.42
2023-05-10T20:01:47.530Z,25.38
2023-05-10T20:04:13.958Z,25.48
2023-05-10T20:06:40.447Z,25.36
2023-05-10T20:09:06.875Z,25.54
2023-05-10T20:11:33.202Z,25.68
2023-05-10T20:13:59.819Z,25.36
2023-05-10T20:16:26.947Z,25.47
2023-05-10T20:18:54.331Z,25.96
2023-05-10T20:21:20.821Z,25.57
2023-05-10T20:23:47.288Z,25.80
2023-05-10T20:26:13.626Z,25.67
2023-05-10T20:28:40.020Z,25.64
2023-05-10T20:31:06.456Z,25.74
2023-05-10T20:33:32.789Z,25.52
2023-05-10T20:35:59.474Z,25.64
2023-05-10T20:38:25.977Z,25.69
2023-05-10T20:40:52.305Z,25.84
2023-05-10T20:43:18.641Z,25.89
2023-05-10T20:45:45.145Z,25.99
2023-05-10T20:48:11.653Z,25.89
2023-05-10T20:50:38.093Z,25.82
2023-05-10T20:53:04.567Z,25.86
2023-05-10T20:55:30.958Z,26.11
2023-05-10T20:57:57.328Z,26.09
2023-05-10T21:00:23.707Z,26.46
2023-05-10T21:02:50.095Z,26.21
2023-05-10T21:05:16.473Z,26.45
2023-05-10T21:07:42.894Z,26.55
2023-05-10T21:10:09.234Z,26.50
2023-05-10T21:12:35.563Z,26.45
2023-05-10T21:15:01.931Z,26.39
2023-05-10T21:17:28.476Z,26.39
2023-05-10T21:19:54.915Z,26.40
2023-05-10T21:22:21.282Z,26.53
2023-05-10T21:24:47.617Z,26.77
2023-05-10T21:27:13.949Z,26.54
2023-05-10T21:29:40.309Z,26.63
2023-05-10T21:32:06.690Z,26.67
2023-05-10T21:34:33.046Z,26.74
2023-05-10T21:36:59.421Z,26.68
2023-05-10T21:39:25.840Z,26.63
2023-05-10T21:41:52.231Z,26.74
2023-05-10T21:44:18.668Z,26.77
2023-05-10T21:46:45.086Z,26.98
2023-05-10T21:49:11.530Z,27.03
2023-05-10T21:51:38.074Z,27.07
2023-05-10T21:54:04.440Z,26.94
2023-05-10T21:56:30.784Z,27.02
2023-05-10T21:58:57.323Z,27.07
2023-05-10T22:01:23.804Z,27.24
2023-05-10T22:03:50.345Z,27.24
2023-05-10T22:06:16.801Z,27.17
2023-05-10T22:08:43.154Z,27.21
2023-05-10T22:11:09.541Z,27.53
2023-05-10T22:13:35.973Z,27.84
2023-05-10T22:16:02.320Z,28.19
2023-05-10T22:18:28.829Z,27.94
2023-05-10T22:20:55.376Z,27.80
2023-05-10T22:23:21.811Z,27.64
2023-05-10T22:25:48.131Z,27.72
2023-05-10T22:28:14.570Z,27.65
2023-05-10T22:30:40.879Z,27.78
2023-05-10T22:33:07.267Z,28.03
2023-05-10T22:35:33.671Z,27.93
2023-05-10T22:38:00.134Z,27.82
2023-05-10T22:40:28.082Z,27.87
2023-05-10T22:42:54.546Z,28.01
2023-05-10T22:45:20.897Z,27.82
2023-05-10T22:47:47.307Z,28.01
2023-05-10T22:50:13.733Z,28.11
2023-05-10T22:52:40.054Z,28.28
2023-05-10T22:55:06.365Z,28.09
2023-05-10T22:57:32.711Z,28.27
2023-05-10T22:59:59.036Z,28.44
2023-05-10T23:02:25.355Z,28.43
2023-05-10T23:04:51.775Z,28.32
2023-05-10T23:07:18.110Z,28.05
2023-05-10T23:09:44.434Z,28.63
2023-05-10T23:12:10.803Z,28.64
2023-05-10T23:14:37.298Z,28.77
2023-05-10T23:17:03.710Z,28.91
2023-05-10T23:19:30.256Z,28.41
2023-05-10T23:21:56.800Z,28.33
2023-05-10T23:24:23.167Z,28.40
2023-05-10T23:26:49.549Z,28.52
2023-05-10T23:29:15.882Z,28.36
2023-05-10T23:31:42.295Z,28.43
2023-05-10T23:34:08.751Z,28.76
2023-05-10T23:36:35.077Z,28.65
2023-05-10T23:39:01.656Z,28.84
2023-05-10T23:41:28.134Z,28.89
2023-05-10T23:43:54.570Z,28.71
2023-05-10T23:46:21.033Z,28.97
2023-05-10T23:48:47.569Z,29.19
2023-05-10T23:51:13.933Z,28.99
2023-05-10T23:53:40.250Z,28.92
2023-05-10T23:56:06.616Z,28.92
2023-05-10T23:58:32.933Z,28.78
